createdAt,value
2018-12-31T00:02:18.956Z,7.10
2018-12-31T00:04:50.939Z,7.10
2018-12-31T00:07:23.175Z,7.10
2018-12-31T00:09:55.569Z,7.10
2018-12-31T00:12:27.777Z,7.10
2018-12-31T00:14:59.961Z,7.10
2018-12-31T00:17:31.805Z,7.10
2018-12-31T00:20:04.075Z,7.10
2018-12-31T00:22:36.001Z,7.00
2018-12-31T00:25:07.863Z,7.00
2018-12-31T00:27:39.722Z,6.90
2018-12-31T00:30:12.238Z,7.00
2018-12-31T00:32:44.783Z,7.00
2018-12-31T00:35:17.662Z,7.00
2018-12-31T00:37:49.507Z,7.00
2018-12-31T00:40:21.372Z,7.10
2018-12-31T00:42:58.969Z,7.10
2018-12-31T00:45:26.801Z,7.10
2018-12-31T00:47:59.544Z,7.10
2018-12-31T00:50:31.479Z,7.20
2018-12-31T00:53:03.673Z,7.10
2018-12-31T00:55:36.390Z,7.20
2018-12-31T00:58:08.254Z,7.20
2018-12-31T01:00:40.123Z,7.10
2018-12-31T01:03:11.964Z,7.10
2018-12-31T01:05:43.838Z,7.10
2018-12-31T01:08:16.342Z,7.00
2018-12-31T01:10:48.520Z,7.00
2018-12-31T01:13:20.957Z,7.10
2018-12-31T01:15:52.840Z,7.00
2018-12-31T01:18:24.695Z,7.00
2018-12-31T01:20:57.026Z,7.00
2018-12-31T01:23:28.894Z,7.00
2018-12-31T01:26:01.160Z,7.10
2018-12-31T01:28:33.619Z,7.00
2018-12-31T01:31:06.380Z,7.10
2018-12-31T01:33:38.270Z,7.10
2018-12-31T01:36:11.046Z,7.10
2018-12-31T01:38:42.894Z,7.10
2018-12-31T01:41:14.753Z,7.10
2018-12-31T01:43:46.604Z,7.10
2018-12-31T01:46:18.706Z,7.10
2018-12-31T01:48:50.999Z,7.10
2018-12-31T01:51:23.777Z,7.10
2018-12-31T01:53:55.985Z,7.10
2018-12-31T01:56:28.487Z,7.20
2018-12-31T01:59:00.329Z,7.20
2018-12-31T02:01:32.187Z,7.20
2018-12-31T02:04:04.036Z,7.20
2018-12-31T02:06:36.183Z,7.20
2018-12-31T02:09:09.612Z,7.10
2018-12-31T02:11:42.195Z,7.10
2018-12-31T02:14:14.652Z,7.10
2018-12-31T02:16:46.516Z,7.10
2018-12-31T02:19:18.333Z,7.10
2018-12-31T02:21:50.200Z,7.10
2018-12-31T02:24:22.041Z,6.90
2018-12-31T02:26:53.928Z,6.90
2018-12-31T02:29:26.312Z,6.80
2018-12-31T02:31:58.277Z,6.80
2018-12-31T02:34:30.249Z,6.80
2018-12-31T02:37:02.116Z,6.90
2018-12-31T02:39:33.950Z,6.90
2018-12-31T02:42:05.826Z,6.90
2018-12-31T02:44:38.760Z,6.80
2018-12-31T02:47:11.289Z,6.80
2018-12-31T02:49:43.819Z,6.70
2018-12-31T02:52:16.930Z,6.60
2018-12-31T02:54:49.503Z,6.60
2018-12-31T02:57:21.376Z,6.60
2018-12-31T02:59:53.223Z,6.70
2018-12-31T03:02:25.078Z,6.70
2018-12-31T03:04:56.922Z,6.80
2018-12-31T03:07:29.601Z,6.90
2018-12-31T03:10:02.171Z,7.00
2018-12-31T03:12:34.710Z,7.00
2018-12-31T03:15:06.858Z,7.10
2018-12-31T03:17:38.720Z,7.10
2018-12-31T03:20:10.695Z,7.20
2018-12-31T03:22:43.154Z,7.20
2018-12-31T03:25:14.999Z,7.10
2018-12-31T03:27:47.161Z,7.10
2018-12-31T03:30:19.364Z,7.00
2018-12-31T03:32:51.561Z,7.00
2018-12-31T03:35:23.403Z,7.00
2018-12-31T03:37:55.320Z,7.10
2018-12-31T03:40:27.148Z,7.10
2018-12-31T03:42:58.998Z,7.10
2018-12-31T03:45:31.210Z,7.10
2018-12-31T03:48:03.438Z,7.10
2018-12-31T03:50:35.376Z,7.10
2018-12-31T03:53:07.933Z,7.10
2018-12-31T03:55:40.053Z,7.20
2018-12-31T03:58:11.925Z,7.20
2018-12-31T04:00:43.750Z,7.20
2018-12-31T04:03:15.692Z,7.30
2018-12-31T04:05:47.589Z,7.30
2018-12-31T04:08:19.548Z,7.30
2018-12-31T04:10:52.252Z,7.40
2018-12-31T04:13:24.807Z,7.40
2018-12-31T04:15:56.679Z,7.40
2018-12-31T04:18:28.537Z,7.30
2018-12-31T04:21:00.386Z,7.40
2018-12-31T04:23:32.219Z,7.40
2018-12-31T04:26:04.664Z,7.50
2018-12-31T04:28:37.280Z,7.40
2018-12-31T04:31:09.467Z,7.40
2018-12-31T04:33:41.983Z,7.50
2018-12-31T04:36:13.990Z,7.50
2018-12-31T04:38:45.821Z,7.60
2018-12-31T04:41:17.777Z,7.50
2018-12-31T04:43:49.614Z,7.50
2018-12-31T04:46:21.937Z,7.50
2018-12-31T04:48:54.796Z,7.50
2018-12-31T04:51:27.365Z,7.50
2018-12-31T04:53:59.871Z,7.60
2018-12-31T04:56:31.769Z,7.60
2018-12-31T04:59:03.720Z,7.60
2018-12-31T05:01:35.559Z,7.60
2018-12-31T05:04:07.457Z,7.60
2018-12-31T05:06:39.319Z,7.60
2018-12-31T05:09:11.316Z,7.60
2018-12-31T05:11:43.202Z,7.60
2018-12-31T05:14:15.912Z,7.40
2018-12-31T05:16:47.743Z,7.30
2018-12-31T05:19:19.624Z,7.30
2018-12-31T05:21:51.806Z,7.30
2018-12-31T05:24:24.382Z,7.10
2018-12-31T05:26:56.542Z,7.00
2018-12-31T05:29:28.784Z,6.80
2018-12-31T05:32:00.607Z,6.70
2018-12-31T05:34:32.461Z,6.60
2018-12-31T05:37:04.351Z,6.60
2018-12-31T05:39:36.298Z,6.60
2018-12-31T05:42:11.376Z,6.70
2018-12-31T05:45:13.615Z,6.60
2018-12-31T05:47:47.090Z,6.50
2018-12-31T05:50:19.065Z,6.50
2018-12-31T05:52:51.582Z,6.40
2018-12-31T05:55:23.562Z,6.40
2018-12-31T05:57:55.799Z,6.40
2018-12-31T06:00:28.465Z,6.40
2018-12-31T06:03:00.302Z,6.50
2018-12-31T06:05:32.186Z,6.60
2018-12-31T06:08:04.007Z,6.70
2018-12-31T06:10:35.995Z,6.70
2018-12-31T06:13:08.469Z,6.80
2018-12-31T06:15:40.895Z,6.80
2018-12-31T06:18:13.354Z,6.80
2018-12-31T06:20:46.531Z,6.80
2018-12-31T06:23:18.373Z,6.90
2018-12-31T06:25:50.282Z,6.80
2018-12-31T06:28:22.127Z,6.70
2018-12-31T06:30:54.141Z,6.60
2018-12-31T06:33:26.751Z,6.60
2018-12-31T06:35:58.674Z,6.70
2018-12-31T06:38:31.233Z,6.80
2018-12-31T06:41:04.000Z,6.80
2018-12-31T06:43:35.834Z,6.80
2018-12-31T06:46:07.799Z,6.70
2018-12-31T06:48:39.645Z,6.70
2018-12-31T06:51:11.947Z,6.80
2018-12-31T06:53:44.134Z,6.90
2018-12-31T06:56:17.038Z,6.80
2018-12-31T06:58:49.636Z,6.80
2018-12-31T07:01:21.691Z,6.90
2018-12-31T07:03:53.549Z,6.90
2018-12-31T07:06:25.439Z,6.80
2018-12-31T07:08:57.270Z,6.90
2018-12-31T07:11:29.372Z,6.90
2018-12-31T07:14:01.538Z,7.00
2018-12-31T07:16:33.454Z,6.90
2018-12-31T07:19:05.695Z,6.80
2018-12-31T07:21:37.570Z,6.80
2018-12-31T07:24:09.420Z,6.80
2018-12-31T07:26:41.296Z,6.80
2018-12-31T07:29:13.122Z,6.70
2018-12-31T07:31:45.526Z,6.70
2018-12-31T07:34:18.150Z,6.60
2018-12-31T07:36:50.283Z,6.50
2018-12-31T07:39:22.474Z,6.50
2018-12-31T07:41:54.377Z,6.60
2018-12-31T07:44:26.224Z,6.60
2018-12-31T07:46:58.091Z,6.70
2018-12-31T07:49:29.953Z,6.70
2018-12-31T07:52:02.209Z,6.70
2018-12-31T07:54:34.062Z,6.80
2018-12-31T07:57:06.008Z,6.90
2018-12-31T07:59:38.495Z,6.80
2018-12-31T08:02:10.375Z,6.80
2018-12-31T08:04:42.238Z,6.90
2018-12-31T08:07:14.953Z,7.00
2018-12-31T08:09:47.164Z,7.10
2018-12-31T08:12:19.367Z,7.20
2018-12-31T08:14:51.258Z,7.30
2018-12-31T08:17:23.127Z,7.30
2018-12-31T08:19:55.074Z,7.30
2018-12-31T08:22:28.105Z,7.30
2018-12-31T08:24:59.940Z,7.30
2018-12-31T08:27:32.711Z,7.30
2018-12-31T08:30:05.306Z,7.40
2018-12-31T08:32:37.546Z,7.50
2018-12-31T08:35:09.715Z,7.50
2018-12-31T08:37:41.580Z,7.40
2018-12-31T08:40:13.410Z,7.30
2018-12-31T08:42:45.288Z,7.30
2018-12-31T08:45:17.134Z,7.30
2018-12-31T08:47:49.369Z,7.30
2018-12-31T08:50:21.298Z,7.30
2018-12-31T08:52:53.771Z,7.40
2018-12-31T08:55:25.935Z,7.50
2018-12-31T08:57:57.820Z,7.40
2018-12-31T09:00:29.725Z,7.30
2018-12-31T09:03:02.573Z,7.30
2018-12-31T09:05:34.423Z,7.30
2018-12-31T09:08:06.332Z,7.20
2018-12-31T09:10:38.831Z,7.10
2018-12-31T09:13:11.031Z,7.10
2018-12-31T09:15:44.244Z,7.20
2018-12-31T09:18:16.125Z,7.30
2018-12-31T09:20:47.976Z,7.30
2018-12-31T09:23:19.870Z,7.30
2018-12-31T09:25:52.063Z,7.20
2018-12-31T09:28:23.952Z,7.10
2018-12-31T09:30:56.400Z,7.10
2018-12-31T09:33:29.232Z,7.00
2018-12-31T09:36:01.073Z,7.00
2018-12-31T09:38:32.936Z,7.10
2018-12-31T09:41:04.777Z,7.10
2018-12-31T09:43:36.681Z,7.30
2018-12-31T09:46:08.957Z,7.20
2018-12-31T09:48:41.202Z,7.10
2018-12-31T09:51:13.735Z,7.20
2018-12-31T09:53:45.702Z,7.20
2018-12-31T09:56:17.600Z,7.30
2018-12-31T09:58:49.489Z,7.40
2018-12-31T10:01:21.662Z,7.40
2018-12-31T10:03:53.573Z,7.50
2018-12-31T10:06:25.821Z,7.60
2018-12-31T10:08:58.602Z,7.60
2018-12-31T10:11:30.532Z,7.60
2018-12-31T10:14:02.509Z,7.60
2018-12-31T10:16:34.367Z,7.60
2018-12-31T10:19:06.237Z,7.60
2018-12-31T10:21:41.163Z,7.60
2018-12-31T10:24:12.601Z,7.60
2018-12-31T10:26:45.070Z,7.80
2018-12-31T10:29:17.003Z,7.90
2018-12-31T10:31:48.861Z,7.90
2018-12-31T10:34:20.782Z,7.90
2018-12-31T10:36:52.626Z,7.90
2018-12-31T10:39:24.497Z,7.90
2018-12-31T10:41:56.683Z,7.80
2018-12-31T10:44:29.246Z,7.90
2018-12-31T10:47:01.522Z,7.90
2018-12-31T10:49:33.759Z,7.80
2018-12-31T10:52:05.724Z,7.70
2018-12-31T10:54:37.860Z,7.70
2018-12-31T10:57:09.741Z,7.80
2018-12-31T10:59:41.655Z,7.90
2018-12-31T11:02:13.651Z,7.90
2018-12-31T11:04:45.618Z,7.90
2018-12-31T11:07:17.573Z,7.90
2018-12-31T11:09:50.081Z,7.80
2018-12-31T11:12:21.935Z,7.90
2018-12-31T11:14:53.797Z,7.90
2018-12-31T11:17:26.795Z,8.10
2018-12-31T11:19:58.813Z,8.30
2018-12-31T11:22:31.005Z,8.50
2018-12-31T11:25:03.804Z,8.70
2018-12-31T11:27:35.679Z,8.80
2018-12-31T11:30:08.385Z,8.90
2018-12-31T11:32:40.365Z,9.00
2018-12-31T11:35:12.246Z,9.20
2018-12-31T11:37:44.445Z,9.10
2018-12-31T11:40:16.753Z,9.10
2018-12-31T11:42:48.931Z,9.00
2018-12-31T11:45:21.260Z,9.10
2018-12-31T11:47:53.130Z,9.10
2018-12-31T11:50:25.001Z,9.10
2018-12-31T11:52:56.866Z,9.20
2018-12-31T11:55:28.840Z,9.30
2018-12-31T11:58:01.834Z,9.20
2018-12-31T12:00:34.396Z,9.30
2018-12-31T12:03:06.971Z,9.20
2018-12-31T12:05:40.138Z,9.30
2018-12-31T12:08:11.987Z,9.10
2018-12-31T12:10:43.866Z,9.10
2018-12-31T12:13:15.720Z,9.10
2018-12-31T12:15:47.880Z,9.10
2018-12-31T12:18:19.750Z,9.20
2018-12-31T12:20:52.105Z,9.10
2018-12-31T12:23:25.033Z,8.80
2018-12-31T12:25:57.367Z,8.60
2018-12-31T12:28:29.228Z,8.50
2018-12-31T12:31:01.211Z,8.50
2018-12-31T12:33:33.060Z,8.60
2018-12-31T12:36:05.450Z,8.80
2018-12-31T12:38:37.844Z,9.00
2018-12-31T12:41:10.327Z,9.00
2018-12-31T12:43:42.502Z,9.10
2018-12-31T12:46:16.108Z,9.00
2018-12-31T12:48:47.949Z,9.10
2018-12-31T12:51:20.483Z,9.00
2018-12-31T12:53:52.351Z,9.10
2018-12-31T12:56:25.181Z,9.10
2018-12-31T12:58:57.336Z,9.10
2018-12-31T13:01:29.211Z,9.10
2018-12-31T13:04:01.058Z,9.20
2018-12-31T13:06:33.112Z,9.10
2018-12-31T13:09:06.704Z,9.00
2018-12-31T13:11:38.698Z,9.00
2018-12-31T13:14:12.213Z,8.90
2018-12-31T13:16:44.387Z,8.90
2018-12-31T13:19:16.610Z,8.90
2018-12-31T13:21:48.474Z,8.80
2018-12-31T13:24:20.406Z,8.90
2018-12-31T13:26:52.550Z,9.00
2018-12-31T13:29:24.400Z,9.00
2018-12-31T13:31:56.323Z,9.00
2018-12-31T13:34:28.628Z,9.10
2018-12-31T13:37:01.976Z,9.10
2018-12-31T13:39:34.867Z,9.10
2018-12-31T13:42:06.742Z,9.00
2018-12-31T13:44:38.574Z,9.00
2018-12-31T13:47:10.843Z,9.00
2018-12-31T13:49:42.704Z,9.00
2018-12-31T13:52:14.719Z,9.00
2018-12-31T13:54:46.584Z,8.90
2018-12-31T13:57:19.207Z,8.90
2018-12-31T13:59:51.408Z,8.90
2018-12-31T14:02:23.326Z,8.90
2018-12-31T14:04:55.153Z,8.80
2018-12-31T14:07:27.388Z,8.70
2018-12-31T14:09:59.347Z,8.80
2018-12-31T14:12:31.896Z,8.90
2018-12-31T14:15:03.762Z,8.90
2018-12-31T14:17:35.970Z,8.90
2018-12-31T14:20:07.918Z,8.70
2018-12-31T14:22:39.802Z,8.60
2018-12-31T14:25:11.642Z,8.70
2018-12-31T14:27:43.795Z,8.70
2018-12-31T14:30:16.902Z,8.70
2018-12-31T14:32:49.093Z,8.80
2018-12-31T14:35:20.956Z,8.90
2018-12-31T14:37:53.529Z,8.90
2018-12-31T14:40:25.676Z,8.90
2018-12-31T14:42:57.562Z,8.80
2018-12-31T14:45:29.443Z,8.80
2018-12-31T14:48:02.219Z,8.60
2018-12-31T14:50:34.706Z,8.60
2018-12-31T14:53:06.600Z,8.70
2018-12-31T14:55:39.212Z,8.70
2018-12-31T14:58:12.950Z,8.70
2018-12-31T15:00:44.936Z,8.80
2018-12-31T15:03:16.794Z,8.80
2018-12-31T15:05:48.772Z,8.70
2018-12-31T15:08:20.813Z,8.70
2018-12-31T15:10:52.703Z,8.70
2018-12-31T15:13:24.924Z,8.80
2018-12-31T15:15:57.801Z,8.70
2018-12-31T15:18:30.279Z,8.70
2018-12-31T15:21:02.138Z,8.70
2018-12-31T15:23:34.000Z,8.70
2018-12-31T15:26:05.907Z,8.50
2018-12-31T15:28:37.747Z,8.50
2018-12-31T15:31:09.637Z,8.60
2018-12-31T15:33:41.800Z,8.70
2018-12-31T15:36:14.568Z,8.70
2018-12-31T15:38:46.773Z,8.70
2018-12-31T15:41:19.450Z,8.80
2018-12-31T15:43:51.317Z,8.90
2018-12-31T15:46:23.183Z,8.90
2018-12-31T15:48:55.032Z,8.90
2018-12-31T15:51:27.386Z,8.90
2018-12-31T15:53:59.595Z,8.80
2018-12-31T15:56:31.528Z,8.80
2018-12-31T15:59:03.984Z,8.80
2018-12-31T16:01:35.862Z,8.70
2018-12-31T16:04:07.718Z,8.70
2018-12-31T16:06:39.610Z,8.70
2018-12-31T16:09:11.555Z,8.70
2018-12-31T16:11:43.554Z,8.70
2018-12-31T16:14:15.715Z,8.70
2018-12-31T16:16:48.405Z,8.70
2018-12-31T16:19:20.568Z,8.70
2018-12-31T16:21:52.457Z,8.80
2018-12-31T16:24:24.295Z,8.90
2018-12-31T16:26:56.592Z,9.00
2018-12-31T16:29:29.016Z,8.90
2018-12-31T16:32:02.070Z,9.00
2018-12-31T16:34:34.303Z,9.00
2018-12-31T16:37:06.197Z,9.00
2018-12-31T16:39:38.052Z,9.10
2018-12-31T16:42:10.404Z,9.10
2018-12-31T16:44:42.255Z,9.20
2018-12-31T16:47:14.488Z,9.20
2018-12-31T16:49:46.723Z,9.20
2018-12-31T16:52:19.405Z,9.20
2018-12-31T16:54:52.373Z,9.10
2018-12-31T16:57:24.307Z,9.10
2018-12-31T16:59:56.144Z,9.00
2018-12-31T17:02:28.913Z,9.00
2018-12-31T17:05:01.049Z,9.10
2018-12-31T17:07:33.308Z,9.10
2018-12-31T17:10:06.027Z,9.10
2018-12-31T17:12:38.144Z,9.10
2018-12-31T17:15:10.347Z,9.10
2018-12-31T17:17:42.745Z,9.10
2018-12-31T17:20:14.579Z,9.10
2018-12-31T17:22:47.009Z,9.20
2018-12-31T17:25:19.574Z,9.20
2018-12-31T17:27:52.039Z,9.10
2018-12-31T17:30:26.711Z,9.20
2018-12-31T17:33:01.360Z,9.10
2018-12-31T17:35:33.363Z,9.10
2018-12-31T17:38:05.497Z,9.20
2018-12-31T17:40:38.845Z,9.20
2018-12-31T17:43:10.850Z,9.20
2018-12-31T17:45:44.445Z,9.20
2018-12-31T17:48:17.663Z,9.20
2018-12-31T17:50:53.048Z,9.30
2018-12-31T17:53:27.134Z,9.20
2018-12-31T17:55:59.087Z,9.20
2018-12-31T17:58:31.309Z,9.20
2018-12-31T18:01:03.206Z,9.10
2018-12-31T18:03:37.809Z,9.20
2018-12-31T18:06:10.079Z,9.20
2018-12-31T18:08:43.083Z,9.20
2018-12-31T18:11:18.737Z,9.20
2018-12-31T18:13:52.001Z,9.20
2018-12-31T18:16:24.382Z,9.10
2018-12-31T18:18:56.954Z,9.10
2018-12-31T18:21:29.581Z,9.10
2018-12-31T18:24:03.427Z,9.10
2018-12-31T18:26:36.102Z,9.10
2018-12-31T18:29:07.981Z,9.00
2018-12-31T18:31:39.828Z,9.10
2018-12-31T18:34:11.700Z,9.10
2018-12-31T18:36:43.694Z,9.10
2018-12-31T18:39:16.252Z,9.20
2018-12-31T18:41:48.398Z,9.20
2018-12-31T18:44:20.874Z,9.20
2018-12-31T18:46:52.734Z,9.20
2018-12-31T18:49:24.728Z,9.10
2018-12-31T18:51:57.241Z,9.20
2018-12-31T18:54:29.503Z,9.20
2018-12-31T18:57:01.440Z,9.20
2018-12-31T18:59:34.374Z,9.20
2018-12-31T19:02:06.919Z,9.20
2018-12-31T19:04:40.015Z,9.10
2018-12-31T19:07:11.913Z,9.00
2018-12-31T19:09:43.887Z,9.10
2018-12-31T19:12:15.903Z,9.10
2018-12-31T19:14:48.177Z,9.20
2018-12-31T19:17:21.001Z,9.20
2018-12-31T19:19:53.187Z,9.20
2018-12-31T19:22:25.035Z,9.30
2018-12-31T19:24:58.163Z,9.30
2018-12-31T19:27:30.104Z,9.20
2018-12-31T19:30:02.054Z,9.20
2018-12-31T19:32:34.407Z,9.20
2018-12-31T19:35:06.456Z,9.20
2018-12-31T19:37:38.458Z,9.20
2018-12-31T19:40:10.776Z,9.10
2018-12-31T19:42:43.020Z,8.90
2018-12-31T19:45:15.013Z,9.00
2018-12-31T19:47:46.991Z,8.90
2018-12-31T19:50:19.260Z,8.90
2018-12-31T19:52:52.254Z,8.80
2018-12-31T19:55:24.778Z,8.80
2018-12-31T19:57:57.047Z,8.90
2018-12-31T20:00:29.597Z,8.90
2018-12-31T20:03:01.714Z,9.00
2018-12-31T20:05:33.606Z,9.00
2018-12-31T20:08:05.795Z,9.00
2018-12-31T20:10:38.039Z,8.90
2018-12-31T20:13:10.598Z,9.00
2018-12-31T20:15:48.511Z,9.00
2018-12-31T20:18:17.176Z,8.90
2018-12-31T20:20:50.171Z,9.00
2018-12-31T20:23:22.046Z,9.00
2018-12-31T20:25:53.993Z,9.00
2018-12-31T20:28:26.236Z,8.90
2018-12-31T20:30:58.361Z,9.00
2018-12-31T20:33:30.332Z,9.00
2018-12-31T20:36:03.029Z,9.00
2018-12-31T20:38:36.272Z,8.90
2018-12-31T20:41:09.511Z,8.90
2018-12-31T20:43:41.468Z,9.00
2018-12-31T20:46:13.735Z,9.00
2018-12-31T20:48:45.748Z,9.00
2018-12-31T20:51:18.341Z,9.00
2018-12-31T20:53:50.211Z,9.00
2018-12-31T20:56:22.390Z,9.00
2018-12-31T20:58:54.668Z,8.90
2018-12-31T21:01:26.564Z,8.90
2018-12-31T21:03:58.429Z,9.00
2018-12-31T21:06:30.404Z,8.90
2018-12-31T21:09:02.269Z,8.90
2018-12-31T21:11:34.499Z,8.70
2018-12-31T21:14:06.700Z,8.70
2018-12-31T21:16:39.282Z,8.70
2018-12-31T21:19:11.573Z,8.80
2018-12-31T21:21:43.453Z,8.90
2018-12-31T21:24:15.305Z,8.90
2018-12-31T21:26:47.183Z,8.80
2018-12-31T21:29:19.030Z,8.80
2018-12-31T21:31:50.958Z,8.80
2018-12-31T21:34:23.436Z,8.90
2018-12-31T21:36:55.992Z,8.90
2018-12-31T21:39:28.170Z,8.90
2018-12-31T21:42:00.063Z,8.90
2018-12-31T21:44:32.194Z,8.90
2018-12-31T21:47:04.178Z,8.90
2018-12-31T21:49:36.108Z,8.90
2018-12-31T21:52:08.270Z,8.90
2018-12-31T21:54:40.930Z,8.90
2018-12-31T21:57:13.253Z,8.90
2018-12-31T21:59:45.836Z,8.90
2018-12-31T22:02:17.965Z,8.90
2018-12-31T22:04:49.828Z,8.80
2018-12-31T22:07:21.727Z,9.00
2018-12-31T22:09:53.666Z,8.90
2018-12-31T22:12:25.838Z,9.00
2018-12-31T22:14:58.045Z,8.90
2018-12-31T22:17:29.976Z,8.90
2018-12-31T22:20:02.494Z,8.90
2018-12-31T22:22:34.376Z,8.90
2018-12-31T22:25:06.772Z,8.90
2018-12-31T22:27:38.933Z,8.90
2018-12-31T22:30:11.293Z,8.90
2018-12-31T22:32:43.607Z,8.90
2018-12-31T22:35:16.775Z,8.90
2018-12-31T22:37:50.259Z,8.90
2018-12-31T22:40:23.010Z,8.90
2018-12-31T22:42:54.943Z,8.80
2018-12-31T22:45:26.805Z,8.80
2018-12-31T22:47:59.297Z,8.90
2018-12-31T22:50:31.212Z,8.90
2018-12-31T22:53:03.626Z,8.90
2018-12-31T22:55:35.737Z,8.80
2018-12-31T22:58:08.298Z,8.80
2018-12-31T23:00:40.867Z,8.70
2018-12-31T23:03:12.804Z,8.70
2018-12-31T23:05:45.683Z,8.70
2018-12-31T23:08:18.477Z,8.60
2018-12-31T23:10:50.814Z,8.60
2018-12-31T23:13:22.959Z,8.60
2018-12-31T23:15:55.720Z,8.50
2018-12-31T23:18:28.818Z,8.40
2018-12-31T23:21:01.696Z,8.20
2018-12-31T23:23:33.592Z,8.20
2018-12-31T23:26:05.806Z,8.10
2018-12-31T23:28:37.761Z,8.10
2018-12-31T23:31:09.626Z,8.10
2018-12-31T23:33:42.927Z,8.10
2018-12-31T23:36:15.093Z,8.10
2018-12-31T23:38:48.716Z,8.10
2018-12-31T23:41:22.502Z,8.10
2018-12-31T23:43:57.216Z,8.10
2018-12-31T23:46:34.795Z,8.20
2018-12-31T23:49:08.895Z,8.20
2018-12-31T23:51:42.346Z,8.30
2018-12-31T23:54:15.428Z,8.30
2018-12-31T23:56:47.282Z,8.30
2018-12-31T23:59:19.304Z,8.40
